Time;durP1;ratioP1;P1;durP2;ratioP2;P2;SDS_P1;SDS_P2;PMS_P1;PMS_P2;Temp;Humidity;BMP_temperature;BMP_pressure;BME280_temperature;BME280_humidity;BME280_pressure;Samples;Min_cycle;Max_cycle;Signal;HPM_P1;HPM_P2
2022/10/22 00:01:26;;;;;;;;;;;;;;;16.77;85.04;99918.50;5040364;28;1764;-65
2022/10/22 00:03:51;;;;;;;;;;;;;;;16.78;85.20;99922.88;5030163;28;2087;-65
2022/10/22 00:06:16;;;;;;;;;;;;;;;16.79;85.47;99907.94;5040828;28;1834;-65
2022/10/22 00:08:41;;;;;;;;;;;;;;;16.80;86.28;99908.75;5041904;28;1931;-65
2022/10/22 00:11:08;;;;;;;;;;;;;;;16.80;85.10;99937.19;5043003;28;1829;-65
2022/10/22 00:13:33;;;;;;;;;;;;;;;16.80;86.09;99928.09;5035230;28;1839;-65
2022/10/22 00:15:58;;;;;;;;;;;;;;;16.79;86.15;99924.50;5036806;28;1656;-65
2022/10/22 00:18:23;;;;;;;;;;;;;;;16.79;85.86;99907.13;5041944;28;1884;-63
2022/10/22 00:20:48;;;;;;;;;;;;;;;16.77;86.66;99899.16;5038293;28;1988;-65
2022/10/22 00:23:13;;;;;;;;;;;;;;;16.78;85.81;99903.53;5039286;28;1719;-64
2022/10/22 00:25:39;;;;;;;;;;;;;;;16.78;85.64;99911.81;5039290;28;1806;-65
2022/10/22 00:28:04;;;;;;;;;;;;;;;16.78;85.53;99916.53;5035243;28;1882;-65
2022/10/22 00:30:29;;;;;;;;;;;;;;;16.77;86.35;99929.56;5034905;28;1674;-65
2022/10/22 00:32:54;;;;;;;;;;;;;;;16.78;86.16;99925.66;5035860;28;1209;-65
2022/10/22 00:35:20;;;;;;;;;;;;;;;16.76;85.94;99913.34;5036067;28;884;-65
2022/10/22 00:37:45;;;;;;;;;;;;;;;16.76;86.66;99925.16;5036962;28;2246;-65
2022/10/22 00:40:10;;;;;;;;;;;;;;;16.76;86.00;99922.41;5037957;28;2028;-64
2022/10/22 00:42:35;;;;;;;;;;;;;;;16.75;86.70;99920.81;5035452;28;1650;-66
2022/10/22 00:45:10;;;;;;;;;;;;;;;16.75;86.79;99920.00;5035782;28;1019;-65
2022/10/22 00:47:39;;;;;;;;;;;;;;;16.76;86.01;99927.16;5034612;28;2100;-64
2022/10/22 00:50:08;;;;;;;;;;;;;;;16.74;86.05;99933.00;5035513;28;1569;-65
2022/10/22 00:52:33;;;;;;;;;;;;;;;16.75;86.84;99931.88;5035548;28;1309;-65
2022/10/22 00:54:59;;;;;;;;;;;;;;;16.75;86.00;99942.13;5035343;28;825;-65
2022/10/22 00:57:25;;;;;;;;;;;;;;;16.75;86.74;99950.41;5035459;28;1907;-65
2022/10/22 00:59:50;;;;;;;;;;;;;;;16.74;86.40;99962.59;5035923;28;1869;-65
2022/10/22 01:02:15;;;;;;;;;;;;;;;16.73;86.52;99960.97;5036997;28;1918;-65
2022/10/22 01:04:41;;;;;;;;;;;;;;;16.73;86.32;99950.72;5034114;28;1759;-65
2022/10/22 01:07:08;;;;;;;;;;;;;;;16.73;87.13;99942.44;5036005;28;2215;-62
2022/10/22 01:09:40;;;;;;;;;;;;;;;16.72;87.29;99938.06;5036062;28;2082;-65
2022/10/22 01:12:11;;;;;;;;;;;;;;;16.72;87.01;99937.25;5034831;28;1814;-65
2022/10/22 01:14:50;;;;;;;;;;;;;;;16.73;86.52;99941.63;5033411;28;1680;-65
2022/10/22 01:17:15;;;;;;;;;;;;;;;16.73;87.13;99938.88;5038716;28;2080;-65
2022/10/22 01:19:49;;;;;;;;;;;;;;;16.72;87.02;99935.28;5034795;28;1746;-65
2022/10/22 01:22:29;;;;;;;;;;;;;;;16.72;86.36;99921.47;5037224;28;2054;-65
2022/10/22 01:24:57;;;;;;;;;;;;;;;16.72;86.43;99917.91;5026280;28;1710;-65
2022/10/22 01:27:22;;;;;;;;;;;;;;;16.71;86.98;99914.31;5042853;28;1788;-65
2022/10/22 01:29:50;;;;;;;;;;;;;;;16.70;86.41;99903.59;5036193;28;1925;-64
2022/10/22 01:32:21;;;;;;;;;;;;;;;16.70;86.59;99921.00;5038018;28;1985;-65
2022/10/22 01:34:49;;;;;;;;;;;;;;;16.71;86.95;99925.38;5035612;28;1657;-65
2022/10/22 01:37:16;;;;;;;;;;;;;;;16.71;87.19;99922.63;5033503;28;1815;-65
2022/10/22 01:39:44;;;;;;;;;;;;;;;16.73;86.49;99922.28;5034092;28;1936;-65
2022/10/22 01:42:11;;;;;;;;;;;;;;;16.73;87.21;99919.53;5035133;28;1882;-65
2022/10/22 01:44:36;;;;;;;;;;;;;;;16.72;87.45;99920.66;5036957;28;1899;-66
2022/10/22 01:47:04;;;;;;;;;;;;;;;16.72;87.61;99920.66;5028685;28;1824;-65
2022/10/22 01:49:39;;;;;;;;;;;;;;;16.72;87.01;99921.47;5036570;28;1927;-64
2022/10/22 01:52:25;;;;;;;;;;;;;;;16.73;86.86;99919.53;5033748;28;1936;-65
2022/10/22 01:54:53;;;;;;;;;;;;;;;16.73;87.61;99920.34;5027195;28;1815;-65
2022/10/22 01:57:25;;;;;;;;;;;;;;;16.74;87.59;99907.31;5032920;28;2088;-66
2022/10/22 01:59:56;;;;;;;;;;;;;;;16.75;86.79;99911.72;5032055;28;2045;-65
2022/10/22 02:02:40;;;;;;;;;;;;;;;16.73;87.07;99909.28;5035581;28;2078;-65
2022/10/22 02:05:09;;;;;;;;;;;;;;;16.73;87.38;99909.28;5040570;28;2009;-64
2022/10/22 02:07:42;;;;;;;;;;;;;;;16.72;87.30;99907.66;5032516;28;1902;-63
2022/10/22 02:10:08;;;;;;;;;;;;;;;16.72;88.06;99907.66;5035150;28;2091;-63
2022/10/22 02:12:34;;;;;;;;;;;;;;;16.71;88.22;99905.22;5034129;28;1801;-64
2022/10/22 02:15:01;;;;;;;;;;;;;;;16.70;88.27;99911.88;5040491;28;2017;-64
2022/10/22 02:17:29;;;;;;;;;;;;;;;16.69;88.29;99911.06;5032512;28;1875;-64
2022/10/22 02:20:03;;;;;;;;;;;;;;;16.69;87.56;99924.91;5039104;28;1885;-64
2022/10/22 02:22:29;;;;;;;;;;;;;;;16.69;88.30;99927.66;5038252;28;2188;-64
2022/10/22 02:24:54;;;;;;;;;;;;;;;16.69;88.13;99941.47;5036521;28;2012;-64
2022/10/22 02:27:23;;;;;;;;;;;;;;;16.69;87.88;99943.44;5032900;28;1859;-64
2022/10/22 02:29:57;;;;;;;;;;;;;;;16.69;88.04;99944.25;5034219;28;2130;-64
2022/10/22 02:32:25;;;;;;;;;;;;;;;16.69;88.12;99944.25;5036292;28;1888;-65
2022/10/22 02:34:52;;;;;;;;;;;;;;;16.68;88.40;99934.31;5032834;28;2019;-66
2022/10/22 02:37:18;;;;;;;;;;;;;;;16.69;88.17;99940.66;5038466;28;2245;-64
2022/10/22 02:39:43;;;;;;;;;;;;;;;16.69;87.52;99933.19;5036060;28;1751;-63
2022/10/22 02:42:09;;;;;;;;;;;;;;;16.69;88.28;99940.66;5039013;28;2251;-65
2022/10/22 02:44:34;;;;;;;;;;;;;;;16.68;87.60;99939.84;5040179;28;1869;-65
2022/10/22 02:46:59;;;;;;;;;;;;;;;16.68;87.76;99939.84;5030453;28;1803;-63
2022/10/22 02:49:24;;;;;;;;;;;;;;;16.68;87.75;99939.84;5035393;28;1949;-65
2022/10/22 02:51:49;;;;;;;;;;;;;;;16.68;88.20;99942.63;5036880;28;2104;-64
2022/10/22 02:54:14;;;;;;;;;;;;;;;16.68;87.31;99937.09;5034360;28;2268;-65
2022/10/22 02:56:40;;;;;;;;;;;;;;;16.68;87.72;99930.75;5036623;28;1827;-65
2022/10/22 02:59:05;;;;;;;;;;;;;;;16.68;87.98;99939.03;5032424;28;1861;-65
2022/10/22 03:01:30;;;;;;;;;;;;;;;16.68;87.53;99934.31;5035633;28;2689;-64
2022/10/22 03:03:55;;;;;;;;;;;;;;;16.67;88.15;99931.94;5037366;28;1912;-64
2022/10/22 03:06:20;;;;;;;;;;;;;;;16.66;87.52;99928.34;5032211;28;1993;-65
2022/10/22 03:08:45;;;;;;;;;;;;;;;16.66;87.64;99933.88;5033770;28;1898;-64
2022/10/22 03:11:11;;;;;;;;;;;;;;;16.67;88.05;99931.94;5035002;28;2046;-64
2022/10/22 03:13:36;;;;;;;;;;;;;;;16.67;88.17;99929.16;5044646;23;2392;-65
2022/10/22 03:16:01;;;;;;;;;;;;;;;16.64;87.79;99925.91;5032422;28;1788;-65
2022/10/22 03:18:26;;;;;;;;;;;;;;;16.65;87.46;99918.44;5038303;28;1793;-65
2022/10/22 03:21:00;;;;;;;;;;;;;;;16.65;87.49;99929.50;5039502;28;2089;-65
2022/10/22 03:23:25;;;;;;;;;;;;;;;16.64;88.10;99931.44;5033289;28;2063;-65
2022/10/22 03:25:50;;;;;;;;;;;;;;;16.66;87.58;99939.41;5037136;28;2551;-65
2022/10/22 03:28:16;;;;;;;;;;;;;;;16.66;87.76;99944.94;5035945;28;1914;-64
2022/10/22 03:30:41;;;;;;;;;;;;;;;16.66;87.81;99947.69;5028292;28;1969;-65
2022/10/22 03:33:06;;;;;;;;;;;;;;;16.66;88.61;99953.22;5024009;28;1912;-65
2022/10/22 03:35:34;;;;;;;;;;;;;;;16.66;88.48;99953.22;5029979;28;1701;-65
2022/10/22 03:38:00;;;;;;;;;;;;;;;16.65;87.84;99957.13;5031050;28;1882;-65
2022/10/22 03:40:25;;;;;;;;;;;;;;;16.65;87.86;99951.59;5032883;28;1593;-66
2022/10/22 03:42:51;;;;;;;;;;;;;;;16.41;88.24;99918.22;5032036;28;1900;-65
2022/10/22 03:45:16;;;;;;;;;;;;;;;16.66;88.16;99971.75;5024698;28;1677;-65
2022/10/22 03:47:41;;;;;;;;;;;;;;;16.65;87.91;99976.47;5032370;28;1890;-65
2022/10/22 03:50:07;;;;;;;;;;;;;;;16.64;88.17;99985.91;5032808;28;987;-65
2022/10/22 03:52:38;;;;;;;;;;;;;;;16.63;88.28;99987.84;5032743;28;1993;-65
2022/10/22 03:55:04;;;;;;;;;;;;;;;16.64;88.83;99994.19;5039192;28;1536;-65
2022/10/22 03:57:29;;;;;;;;;;;;;;;16.63;88.04;99987.03;5015493;28;1536;-65
2022/10/22 03:59:54;;;;;;;;;;;;;;;16.63;88.04;99984.28;5013182;28;861;-64
2022/10/22 04:02:20;;;;;;;;;;;;;;;16.62;88.15;99986.22;5012897;28;1280;-65
2022/10/22 04:04:45;;;;;;;;;;;;;;;16.63;88.10;99990.63;5035262;28;1922;-65
2022/10/22 04:07:10;;;;;;;;;;;;;;;16.63;88.24;99998.09;5036271;28;1770;-65
2022/10/22 04:09:36;;;;;;;;;;;;;;;16.63;88.56;100003.63;5030481;28;1961;-65
2022/10/22 04:12:01;;;;;;;;;;;;;;;16.63;88.23;100003.63;5024046;28;1846;-65
2022/10/22 04:14:26;;;;;;;;;;;;;;;16.60;87.98;99999.53;5032211;28;1902;-65
2022/10/22 04:16:51;;;;;;;;;;;;;;;16.62;87.78;99996.47;5039039;28;2003;-65
2022/10/22 04:19:17;;;;;;;;;;;;;;;16.63;88.28;99998.09;5033784;28;1761;-65
2022/10/22 04:21:42;;;;;;;;;;;;;;;16.63;88.15;100000.84;5038219;28;1997;-65
2022/10/22 04:24:07;;;;;;;;;;;;;;;16.62;88.18;99999.22;5034618;28;1888;-65
2022/10/22 04:26:32;;;;;;;;;;;;;;;16.62;88.84;99996.47;5034065;28;2095;-65
2022/10/22 04:28:57;;;;;;;;;;;;;;;16.62;87.93;99997.28;5035747;28;1906;-65
2022/10/22 04:31:23;;;;;;;;;;;;;;;16.62;88.41;99997.28;5035149;28;1940;-65
2022/10/22 04:33:53;;;;;;;;;;;;;;;16.63;87.90;100000.84;5027774;28;1830;-65
2022/10/22 04:36:18;;;;;;;;;;;;;;;16.62;87.75;100000.03;5034170;28;1707;-65
2022/10/22 04:38:44;;;;;;;;;;;;;;;16.63;88.48;100004.44;5030661;28;1721;-65
2022/10/22 04:41:14;;;;;;;;;;;;;;;16.63;88.19;100011.91;5021468;28;1477;-65
2022/10/22 04:43:39;;;;;;;;;;;;;;;16.63;88.08;100006.38;5020422;28;1612;-65
2022/10/22 04:46:05;;;;;;;;;;;;;;;16.62;88.97;100008.34;5023652;28;1541;-65
2022/10/22 04:48:30;;;;;;;;;;;;;;;16.62;88.82;100015.81;5015683;28;1957;-65
2022/10/22 04:50:56;;;;;;;;;;;;;;;16.63;89.06;100014.66;5015843;28;817;-65
2022/10/22 04:53:21;;;;;;;;;;;;;;;16.62;88.51;100016.63;5028422;28;1887;-65
2022/10/22 04:55:46;;;;;;;;;;;;;;;16.62;88.91;100018.56;5033922;28;1564;-65
2022/10/22 04:58:12;;;;;;;;;;;;;;;16.61;88.32;100003.13;5035282;28;990;-65
2022/10/22 05:00:37;;;;;;;;;;;;;;;16.61;88.76;100011.41;5035286;28;925;-65
2022/10/22 05:03:02;;;;;;;;;;;;;;;16.59;88.29;100008.13;5029451;28;1468;-65
2022/10/22 05:05:27;;;;;;;;;;;;;;;16.60;87.85;100007.81;5023724;28;1680;-65
2022/10/22 05:07:52;;;;;;;;;;;;;;;16.60;87.85;100016.09;5015289;28;1898;-64
2022/10/22 05:10:17;;;;;;;;;;;;;;;16.60;88.55;100016.09;5032824;28;2146;-64
2022/10/22 05:12:42;;;;;;;;;;;;;;;16.61;88.03;100014.19;5031332;28;1566;-65
2022/10/22 05:15:08;;;;;;;;;;;;;;;16.61;88.07;100011.41;5032779;28;1701;-64
2022/10/22 05:17:36;;;;;;;;;;;;;;;16.61;88.29;100020.53;5029954;28;1648;-65
2022/10/22 05:20:01;;;;;;;;;;;;;;;16.60;89.34;100016.09;5022486;28;1653;-65
2022/10/22 05:22:27;;;;;;;;;;;;;;;16.60;88.90;100016.09;5025534;28;1711;-65
2022/10/22 05:24:52;;;;;;;;;;;;;;;16.60;89.24;100010.56;5033225;28;1878;-65
2022/10/22 05:27:17;;;;;;;;;;;;;;;16.58;88.27;99999.06;5019257;28;1541;-65
2022/10/22 05:29:42;;;;;;;;;;;;;;;16.58;88.40;100007.34;5024165;28;1964;-65
2022/10/22 05:32:07;;;;;;;;;;;;;;;16.58;88.30;100014.84;5034515;28;3354;-65
2022/10/22 05:34:34;;;;;;;;;;;;;;;16.58;88.70;100023.13;5042270;28;2787;-65
2022/10/22 05:37:00;;;;;;;;;;;;;;;16.57;88.82;100015.97;5024579;28;1672;-65
2022/10/22 05:39:25;;;;;;;;;;;;;;;16.57;88.67;100016.78;5028786;28;1637;-64
2022/10/22 05:41:50;;;;;;;;;;;;;;;16.56;89.46;100020.69;5026240;28;1788;-64
2022/10/22 05:44:15;;;;;;;;;;;;;;;16.56;88.76;100020.69;5035523;28;1963;-63
2022/10/22 05:46:42;;;;;;;;;;;;;;;16.57;88.65;100027.84;5031104;28;1733;-65
2022/10/22 05:49:07;;;;;;;;;;;;;;;16.57;88.71;100027.84;5031063;28;1898;-65
2022/10/22 05:51:33;;;;;;;;;;;;;;;16.58;88.32;100040.50;5027951;28;1796;-65
2022/10/22 05:54:01;;;;;;;;;;;;;;;16.58;89.10;100040.50;5031863;28;1894;-65
2022/10/22 05:56:26;;;;;;;;;;;;;;;16.58;89.42;100039.72;5024825;28;1801;-65
2022/10/22 05:58:52;;;;;;;;;;;;;;;16.59;88.73;100039.34;5038386;28;1750;-65
2022/10/22 06:01:18;;;;;;;;;;;;;;;16.57;88.86;100047.19;5027910;28;2083;-64
2022/10/22 06:03:44;;;;;;;;;;;;;;;16.58;89.24;100059.03;5033345;28;1750;-64
2022/10/22 06:06:38;;;;;;;;;;;;;;;16.60;88.43;100056.75;5040639;28;1781;-64
2022/10/22 06:09:05;;;;;;;;;;;;;;;16.64;89.16;100061.31;5020134;28;1985;-64
2022/10/22 06:11:30;;;;;;;;;;;;;;;16.69;89.08;100060.31;5032336;28;1719;-64
2022/10/22 06:13:55;;;;;;;;;;;;;;;16.67;88.18;100067.34;5037139;28;2094;-65
2022/10/22 06:16:21;;;;;;;;;;;;;;;16.64;89.37;100060.50;5018574;28;1892;-65
2022/10/22 06:18:46;;;;;;;;;;;;;;;16.63;89.51;100061.66;5033747;28;1656;-65
2022/10/22 06:21:12;;;;;;;;;;;;;;;16.67;89.18;100061.81;5036145;28;1895;-65
2022/10/22 06:23:38;;;;;;;;;;;;;;;16.70;89.13;100064.69;5028172;28;1963;-65
2022/10/22 06:26:03;;;;;;;;;;;;;;;16.70;89.17;100064.69;5034270;28;1935;-64
2022/10/22 06:28:29;;;;;;;;;;;;;;;16.69;89.16;100062.25;5034028;28;2112;-64
2022/10/22 06:30:55;;;;;;;;;;;;;;;16.69;89.21;100067.78;5031480;28;1881;-65
2022/10/22 06:33:21;;;;;;;;;;;;;;;16.68;88.96;100069.75;5037189;28;1946;-65
2022/10/22 06:35:47;;;;;;;;;;;;;;;16.68;89.07;100078.03;5029320;28;1666;-65
2022/10/22 06:38:12;;;;;;;;;;;;;;;16.69;89.40;100081.59;5013584;28;1757;-65
2022/10/22 06:40:37;;;;;;;;;;;;;;;16.68;89.02;100088.28;5037983;28;1925;-65
2022/10/22 06:43:04;;;;;;;;;;;;;;;16.68;88.49;100094.63;5015950;28;1732;-65
2022/10/22 06:45:29;;;;;;;;;;;;;;;16.68;88.88;100091.03;5036141;28;1971;-63
2022/10/22 06:47:54;;;;;;;;;;;;;;;16.68;89.55;100108.44;5033339;28;2093;-65
2022/10/22 06:50:19;;;;;;;;;;;;;;;16.69;89.21;100107.28;5029052;28;2542;-65
2022/10/22 06:52:45;;;;;;;;;;;;;;;16.74;88.91;100104.38;5030618;28;1969;-65
2022/10/22 06:55:10;;;;;;;;;;;;;;;16.46;87.99;100114.97;5044218;28;1861;-64
2022/10/22 06:57:35;;;;;;;;;;;;;;;16.26;87.73;100110.94;5026908;28;1654;-63
2022/10/22 07:00:00;;;;;;;;;;;;;;;16.13;87.47;100120.25;5035363;28;1944;-64
2022/10/22 07:02:25;;;;;;;;;;;;;;;16.08;87.20;100125.91;5039415;28;1771;-68
2022/10/22 07:04:50;;;;;;;;;;;;;;;16.05;87.50;100131.28;5037713;28;1835;-64
2022/10/22 07:07:16;;;;;;;;;;;;;;;16.03;87.01;100128.03;5020329;28;1767;-65
2022/10/22 07:09:44;;;;;;;;;;;;;;;16.05;87.55;100131.28;5024934;28;1890;-63
2022/10/22 07:12:09;;;;;;;;;;;;;;;16.20;87.72;100130.78;5040421;28;1894;-64
2022/10/22 07:14:34;;;;;;;;;;;;;;;16.41;86.35;100125.41;5033418;28;1826;-64
2022/10/22 07:16:59;;;;;;;;;;;;;;;16.35;87.24;100134.97;5035279;28;1774;-64
2022/10/22 07:19:25;;;;;;;;;;;;;;;16.43;85.97;100142.44;5026344;28;1930;-63
2022/10/22 07:21:50;;;;;;;;;;;;;;;16.45;86.15;100145.69;5024872;28;1874;-65
2022/10/22 07:24:15;;;;;;;;;;;;;;;16.47;87.13;100146.19;5032894;28;1209;-65
2022/10/22 07:26:40;;;;;;;;;;;;;;;16.44;86.91;100142.13;5032803;28;1046;-65
2022/10/22 07:29:05;;;;;;;;;;;;;;;16.43;86.67;100143.25;5024428;28;1931;-64
2022/10/22 07:31:30;;;;;;;;;;;;;;;16.43;87.29;100145.19;5033982;28;1893;-63
2022/10/22 07:33:56;;;;;;;;;;;;;;;16.42;87.48;100149.09;5025314;28;1667;-63
2022/10/22 07:36:21;;;;;;;;;;;;;;;16.41;87.65;100142.78;5033845;28;1841;-63
2022/10/22 07:38:48;;;;;;;;;;;;;;;16.41;87.27;100153.03;5028151;28;1940;-66
2022/10/22 07:41:14;;;;;;;;;;;;;;;16.41;86.92;100153.03;5034218;28;1993;-63
2022/10/22 07:43:39;;;;;;;;;;;;;;;16.40;86.86;100149.44;5036822;28;1783;-63
2022/10/22 07:46:07;;;;;;;;;;;;;;;16.41;87.04;100159.38;5036619;28;1647;-65
2022/10/22 07:48:32;;;;;;;;;;;;;;;16.40;86.92;100162.44;5035143;28;1902;-63
2022/10/22 07:50:57;;;;;;;;;;;;;;;16.39;87.67;100163.59;5040315;28;1962;-63
2022/10/22 07:53:23;;;;;;;;;;;;;;;16.38;86.94;100176.59;5043929;28;1845;-63
2022/10/22 07:55:48;;;;;;;;;;;;;;;16.38;87.41;100176.59;5033421;28;2088;-65
2022/10/22 07:58:14;;;;;;;;;;;;;;;16.39;87.10;100180.97;5036545;28;1408;-64
2022/10/22 08:00:39;;;;;;;;;;;;;;;16.38;87.61;100175.78;5034937;28;2096;-65
2022/10/22 08:03:04;;;;;;;;;;;;;;;16.39;86.94;100180.16;5036807;28;1863;-64
2022/10/22 08:05:29;;;;;;;;;;;;;;;16.28;87.59;100180.50;5031795;28;1843;-67
2022/10/22 08:07:54;;;;;;;;;;;;;;;16.30;87.84;100188.44;5039468;28;1965;-64
2022/10/22 08:10:19;;;;;;;;;;;;;;;16.44;87.05;100178.03;5031744;28;1854;-65
2022/10/22 08:12:45;;;;;;;;;;;;;;;16.50;87.20;100170.41;5032368;28;1932;-63
2022/10/22 08:15:10;;;;;;;;;;;;;;;16.43;87.25;100172.81;5035288;28;1707;-64
2022/10/22 08:17:35;;;;;;;;;;;;;;;16.32;88.10;100183.44;5032719;28;1725;-64
2022/10/22 08:20:00;;;;;;;;;;;;;;;16.27;88.77;100189.91;5031410;28;1250;-64
2022/10/22 08:22:25;;;;;;;;;;;;;;;16.25;88.20;100192.19;5018477;28;1775;-67
2022/10/22 08:24:50;;;;;;;;;;;;;;;16.25;88.76;100196.88;5024505;28;1555;-64
2022/10/22 08:27:16;;;;;;;;;;;;;;;16.24;88.99;100203.56;5016064;28;786;-65
2022/10/22 08:29:41;;;;;;;;;;;;;;;16.25;88.50;100197.69;5016262;28;1894;-64
2022/10/22 08:32:06;;;;;;;;;;;;;;;16.24;88.84;100190.59;5016243;28;841;-66
2022/10/22 08:34:31;;;;;;;;;;;;;;;16.26;88.37;100193.81;5035168;28;2506;-64
2022/10/22 08:36:56;;;;;;;;;;;;;;;16.26;89.38;100195.75;5015929;28;909;-64
2022/10/22 08:39:21;;;;;;;;;;;;;;;16.26;88.72;100193.00;5016095;28;1007;-64
2022/10/22 08:42:02;;;;;;;;;;;;;;;16.27;89.02;100197.38;5016000;28;848;-64
2022/10/22 08:44:30;;;;;;;;;;;;;;;16.30;88.72;100193.16;5035369;28;2251;-64
2022/10/22 08:47:24;;;;;;;;;;;;;;;16.28;88.83;100199.81;5030701;28;1585;-64
2022/10/22 08:49:52;;;;;;;;;;;;;;;16.29;88.86;100203.41;5015971;28;1985;-64
2022/10/22 08:52:18;;;;;;;;;;;;;;;16.30;89.21;100212.50;5015149;28;1885;-64
2022/10/22 08:54:51;;;;;;;;;;;;;;;16.29;89.16;100208.91;5020767;28;1577;-64
2022/10/22 08:57:29;;;;;;;;;;;;;;;16.27;89.79;100200.97;5020034;28;1607;-67
2022/10/22 08:59:54;;;;;;;;;;;;;;;16.30;88.89;100205.03;5015746;28;916;-64
2022/10/22 09:02:32;;;;;;;;;;;;;;;16.30;89.46;100205.03;5015898;28;1604;-64
2022/10/22 09:05:04;;;;;;;;;;;;;;;16.33;88.96;100203.56;5023870;28;1562;-64
2022/10/22 09:07:29;;;;;;;;;;;;;;;16.33;89.59;100203.56;5015716;28;865;-64
2022/10/22 09:09:56;;;;;;;;;;;;;;;16.33;89.57;100207.16;5015907;28;1910;-63
2022/10/22 09:12:23;;;;;;;;;;;;;;;16.36;88.64;100202.91;5015861;28;1574;-64
2022/10/22 09:14:48;;;;;;;;;;;;;;;16.37;88.77;100204.53;5037551;28;1760;-64
2022/10/22 09:17:16;;;;;;;;;;;;;;;16.37;88.67;100205.34;5020038;28;1608;-64
2022/10/22 09:19:42;;;;;;;;;;;;;;;16.38;89.26;100200.63;5015388;28;983;-64
2022/10/22 09:22:15;;;;;;;;;;;;;;;16.39;88.83;100216.06;5015338;28;992;-67
2022/10/22 09:24:44;;;;;;;;;;;;;;;16.39;88.94;100216.06;5032007;28;2090;-64
2022/10/22 09:27:11;;;;;;;;;;;;;;;16.40;89.27;100209.41;5014883;28;813;-67
2022/10/22 09:29:36;;;;;;;;;;;;;;;16.41;89.36;100217.38;5015083;28;1969;-63
2022/10/22 09:32:01;;;;;;;;;;;;;;;16.42;88.88;100223.69;5016527;28;1652;-67
2022/10/22 09:34:27;;;;;;;;;;;;;;;16.43;89.20;100225.31;5023117;28;1648;-64
2022/10/22 09:36:59;;;;;;;;;;;;;;;16.44;88.89;100227.75;5014738;28;870;-64
2022/10/22 09:39:26;;;;;;;;;;;;;;;16.44;89.38;100216.72;5014988;28;825;-64
2022/10/22 09:41:51;;;;;;;;;;;;;;;16.46;89.61;100219.16;5020999;28;1870;-66
2022/10/22 09:44:17;;;;;;;;;;;;;;;16.46;88.75;100219.97;5027686;28;1628;-63
2022/10/22 09:46:44;;;;;;;;;;;;;;;16.46;88.74;100224.66;5014652;28;873;-64
2022/10/22 09:49:11;;;;;;;;;;;;;;;16.46;89.62;100224.66;5014704;28;1963;-64
2022/10/22 09:51:40;;;;;;;;;;;;;;;16.47;89.11;100215.25;5017753;28;1668;-64
2022/10/22 09:54:17;;;;;;;;;;;;;;;16.45;89.26;100226.63;5036240;28;1691;-67
2022/10/22 09:56:49;;;;;;;;;;;;;;;16.46;89.56;100228.25;5023648;28;1511;-64
2022/10/22 09:59:15;;;;;;;;;;;;;;;16.45;89.12;100217.53;5014623;28;1035;-64
2022/10/22 10:01:41;;;;;;;;;;;;;;;16.45;89.52;100223.84;5016843;28;1775;-64
2022/10/22 10:04:13;;;;;;;;;;;;;;;16.46;88.87;100230.19;5026151;28;1568;-65
2022/10/22 10:06:40;;;;;;;;;;;;;;;16.47;88.76;100234.59;5034075;28;1050;-64
2022/10/22 10:09:12;;;;;;;;;;;;;;;16.48;88.82;100238.97;5034169;28;1901;-63
2022/10/22 10:11:42;;;;;;;;;;;;;;;16.48;89.53;100239.78;5033461;28;1954;-64
2022/10/22 10:14:07;;;;;;;;;;;;;;;16.48;88.76;100231.50;5040018;28;1502;-64
2022/10/22 10:16:56;;;;;;;;;;;;;;;16.49;89.12;100240.59;5016348;28;1370;-64
2022/10/22 10:19:29;;;;;;;;;;;;;;;16.47;89.08;100235.41;5007545;28;1506;-64
2022/10/22 10:22:04;;;;;;;;;;;;;;;16.49;89.59;100251.66;5019782;28;1594;-64
2022/10/22 10:24:41;;;;;;;;;;;;;;;16.49;88.69;100246.13;5042495;28;1656;-64
2022/10/22 10:27:21;;;;;;;;;;;;;;;16.49;88.89;100249.72;5027918;28;1535;-66
2022/10/22 10:30:01;;;;;;;;;;;;;;;16.50;88.64;100248.53;5014053;28;1898;-66
2022/10/22 10:32:35;;;;;;;;;;;;;;;16.50;89.00;100251.31;5027515;28;1622;-64
2022/10/22 10:35:13;;;;;;;;;;;;;;;16.51;89.55;100249.34;5028837;28;1708;-66
2022/10/22 10:37:42;;;;;;;;;;;;;;;16.52;88.77;100242.69;5013745;28;838;-64
2022/10/22 10:40:17;;;;;;;;;;;;;;;16.52;89.32;100249.03;5013849;28;1012;-63
2022/10/22 10:42:51;;;;;;;;;;;;;;;16.53;88.28;100250.66;5020111;28;1918;-64
2022/10/22 10:45:16;;;;;;;;;;;;;;;16.56;88.35;100251.97;5020967;28;1534;-64
2022/10/22 10:48:05;;;;;;;;;;;;;;;16.56;87.89;100251.97;5032028;28;1290;-63
2022/10/22 10:50:48;;;;;;;;;;;;;;;16.54;87.76;100249.53;5033645;28;1035;-64
2022/10/22 10:53:18;;;;;;;;;;;;;;;16.54;88.04;100248.72;5038996;28;1908;-67
2022/10/22 10:55:52;;;;;;;;;;;;;;;16.54;88.58;100251.47;5022676;28;1607;-67
2022/10/22 10:58:35;;;;;;;;;;;;;;;16.53;88.00;100247.91;5013658;28;1007;-66
2022/10/22 11:01:12;;;;;;;;;;;;;;;16.53;87.85;100250.66;5013626;28;983;-64
2022/10/22 11:03:37;;;;;;;;;;;;;;;16.52;89.01;100251.81;5035149;28;1634;-65
2022/10/22 11:06:11;;;;;;;;;;;;;;;16.52;88.38;100246.28;5019697;28;1660;-64
2022/10/22 11:08:40;;;;;;;;;;;;;;;16.54;87.83;100257.00;5013498;28;1925;-64
2022/10/22 11:11:16;;;;;;;;;;;;;;;16.54;87.47;100255.06;5013552;28;885;-67
2022/10/22 11:13:51;;;;;;;;;;;;;;;16.56;87.70;100258.31;5032555;28;1865;-66
2022/10/22 11:16:23;;;;;;;;;;;;;;;16.55;87.92;100256.69;5023433;28;1700;-64
2022/10/22 11:18:52;;;;;;;;;;;;;;;16.59;87.13;100262.34;5019987;28;877;-63
2022/10/22 11:21:17;;;;;;;;;;;;;;;16.60;88.57;100255.69;5020003;28;821;-64
2022/10/22 11:23:55;;;;;;;;;;;;;;;16.57;87.77;100250.84;5026654;28;1924;-64
2022/10/22 11:26:40;;;;;;;;;;;;;;;16.58;87.38;100255.22;5023687;28;1695;-64
2022/10/22 11:29:10;;;;;;;;;;;;;;;16.57;87.24;100251.66;5021490;28;1965;-67
2022/10/22 11:31:36;;;;;;;;;;;;;;;16.59;87.36;100260.41;5029273;28;1553;-64
2022/10/22 11:34:14;;;;;;;;;;;;;;;16.57;87.53;100251.66;5039573;28;1181;-64
2022/10/22 11:36:40;;;;;;;;;;;;;;;16.57;87.88;100253.59;5039433;28;852;-64
2022/10/22 11:39:05;;;;;;;;;;;;;;;16.57;88.12;100261.91;5038911;28;1953;-64
2022/10/22 11:41:32;;;;;;;;;;;;;;;16.60;87.13;100253.75;5031316;28;1567;-64
2022/10/22 11:43:58;;;;;;;;;;;;;;;16.61;87.82;100257.34;5039551;28;1299;-64
2022/10/22 11:46:28;;;;;;;;;;;;;;;16.61;87.58;100251.81;5039238;28;907;-64
2022/10/22 11:49:11;;;;;;;;;;;;;;;16.61;87.00;100249.06;5038874;28;1968;-64
2022/10/22 11:51:39;;;;;;;;;;;;;;;16.61;87.08;100243.53;5029481;28;1690;-65
2022/10/22 11:54:22;;;;;;;;;;;;;;;16.61;87.18;100249.06;5019694;28;1205;-63
2022/10/22 11:56:50;;;;;;;;;;;;;;;16.61;87.25;100244.34;5019130;28;1052;-64
2022/10/22 11:59:32;;;;;;;;;;;;;;;16.61;87.52;100243.53;5043490;28;1844;-63
2022/10/22 12:01:57;;;;;;;;;;;;;;;16.61;87.35;100249.88;5035131;28;1841;-64
2022/10/22 12:04:38;;;;;;;;;;;;;;;16.61;86.65;100240.78;5043049;28;1625;-66
2022/10/22 12:07:04;;;;;;;;;;;;;;;16.60;86.67;100239.94;5019214;28;1035;-64
2022/10/22 12:09:31;;;;;;;;;;;;;;;16.63;86.43;100230.22;5034400;28;1898;-65
2022/10/22 12:12:23;;;;;;;;;;;;;;;16.64;86.92;100229.88;5034972;28;1598;-63
2022/10/22 12:14:53;;;;;;;;;;;;;;;16.67;86.48;100228.44;5018310;28;1036;-64
2022/10/22 12:17:19;;;;;;;;;;;;;;;16.67;87.10;100235.91;5019314;28;865;-63
2022/10/22 12:19:49;;;;;;;;;;;;;;;16.70;86.11;100230.53;5036731;28;1675;-64
2022/10/22 12:22:31;;;;;;;;;;;;;;;16.68;86.46;100227.25;5032284;28;1636;-64
2022/10/22 12:25:00;;;;;;;;;;;;;;;16.69;86.89;100230.84;5019387;28;895;-66
2022/10/22 12:27:28;;;;;;;;;;;;;;;16.68;86.19;100224.50;5015554;28;750;-67
2022/10/22 12:29:57;;;;;;;;;;;;;;;16.69;86.45;100231.66;5033635;28;1981;-64
2022/10/22 12:32:28;;;;;;;;;;;;;;;16.72;86.29;100232.97;5028036;28;1711;-64
2022/10/22 12:34:53;;;;;;;;;;;;;;;16.75;86.02;100237.84;5016248;28;1003;-63
2022/10/22 12:37:19;;;;;;;;;;;;;;;16.74;86.20;100238.97;5015915;28;769;-64
2022/10/22 12:39:44;;;;;;;;;;;;;;;16.72;86.33;100233.78;5031060;28;1630;-64
2022/10/22 12:42:12;;;;;;;;;;;;;;;16.72;85.59;100239.31;5029711;28;1510;-65
2022/10/22 12:44:37;;;;;;;;;;;;;;;16.74;85.93;100236.22;5015952;28;881;-64
2022/10/22 12:47:04;;;;;;;;;;;;;;;16.72;86.70;100241.25;5015689;28;841;-64
2022/10/22 12:49:38;;;;;;;;;;;;;;;16.69;85.83;100245.47;5028223;28;2016;-63
2022/10/22 12:52:05;;;;;;;;;;;;;;;16.69;85.38;100245.47;5035667;28;1562;-63
2022/10/22 12:54:31;;;;;;;;;;;;;;;16.69;86.13;100239.94;5035547;28;1276;-64